Rochebaucourt, Canada
Current Conditions -  °F | °C
As of 1:00 PM on Thursday 23 Oct 2014 (Local Time) from CYVO Reporting Station
Clear Clear  
Wind Chill: 46°   Ceiling: Unl
Heat Index: 48°   Visibility: 15mi
Dew Point: 32°   Wind: 5mph
Humidity: 54%   Direction: 20°NNE
Pressure: 30.17"   Gusts: NA
Location:  48.67°N, 77.47°W
Report Text: CYVO 231700Z 02004KT 350V090 15SM SKC 09/00 A3017 RMK SLP234
Loading
Personal Weather Stations






























Interactive Weather Map
Tropical Storm Tracking
New forecast layout! Learn more

10-Day Weather Forecast

Advertisements
Track Severe Weather on mobile